sensor_id;sensor_type;location;lat;lon;timestamp;P1;durP1;ratioP1;P2;durP2;ratioP2
42726;SDS011;28372;56.832;60.658;2023-04-22T00:00:02;15.48;;;9.60;;
42726;SDS011;28372;56.832;60.658;2023-04-22T00:02:34;16.90;;;10.02;;
42726;SDS011;28372;56.832;60.658;2023-04-22T00:05:04;15.27;;;9.13;;
42726;SDS011;28372;56.832;60.658;2023-04-22T00:07:33;16.20;;;9.35;;
42726;SDS011;28372;56.832;60.658;2023-04-22T00:10:01;15.77;;;8.95;;
42726;SDS011;28372;56.832;60.658;2023-04-22T00:12:28;15.35;;;8.98;;
42726;SDS011;28372;56.832;60.658;2023-04-22T00:14:56;16.92;;;8.98;;
42726;SDS011;28372;56.832;60.658;2023-04-22T00:17:23;17.20;;;9.60;;
42726;SDS011;28372;56.832;60.658;2023-04-22T00:19:51;12.82;;;7.65;;
42726;SDS011;28372;56.832;60.658;2023-04-22T00:22:18;13.95;;;7.60;;
42726;SDS011;28372;56.832;60.658;2023-04-22T00:24:46;15.02;;;8.13;;
42726;SDS011;28372;56.832;60.658;2023-04-22T00:27:13;14.07;;;8.07;;
42726;SDS011;28372;56.832;60.658;2023-04-22T00:29:41;14.02;;;8.15;;
42726;SDS011;28372;56.832;60.658;2023-04-22T00:32:08;17.30;;;8.15;;
42726;SDS011;28372;56.832;60.658;2023-04-22T00:34:36;17.00;;;8.52;;
42726;SDS011;28372;56.832;60.658;2023-04-22T00:37:04;19.90;;;8.02;;
42726;SDS011;28372;56.832;60.658;2023-04-22T00:39:32;13.85;;;9.02;;
42726;SDS011;28372;56.832;60.658;2023-04-22T00:41:59;15.50;;;9.32;;
42726;SDS011;28372;56.832;60.658;2023-04-22T00:44:27;16.45;;;9.23;;
42726;SDS011;28372;56.832;60.658;2023-04-22T00:46:56;15.32;;;8.93;;
42726;SDS011;28372;56.832;60.658;2023-04-22T00:49:26;15.68;;;8.07;;
42726;SDS011;28372;56.832;60.658;2023-04-22T00:51:53;17.10;;;8.05;;
42726;SDS011;28372;56.832;60.658;2023-04-22T00:54:21;14.95;;;7.90;;
42726;SDS011;28372;56.832;60.658;2023-04-22T00:56:49;13.95;;;8.77;;
42726;SDS011;28372;56.832;60.658;2023-04-22T00:59:16;15.60;;;8.57;;
42726;SDS011;28372;56.832;60.658;2023-04-22T01:01:44;15.40;;;8.65;;
42726;SDS011;28372;56.832;60.658;2023-04-22T01:04:13;16.05;;;8.35;;
42726;SDS011;28372;56.832;60.658;2023-04-22T01:06:42;14.27;;;7.80;;
42726;SDS011;28372;56.832;60.658;2023-04-22T01:09:10;13.13;;;7.53;;
42726;SDS011;28372;56.832;60.658;2023-04-22T01:11:38;11.45;;;7.45;;
42726;SDS011;28372;56.832;60.658;2023-04-22T01:14:06;11.93;;;7.90;;
42726;SDS011;28372;56.832;60.658;2023-04-22T01:16:34;14.52;;;8.15;;
42726;SDS011;28372;56.832;60.658;2023-04-22T01:19:05;14.10;;;7.80;;
42726;SDS011;28372;56.832;60.658;2023-04-22T01:21:34;14.95;;;7.60;;
42726;SDS011;28372;56.832;60.658;2023-04-22T01:24:02;14.85;;;8.18;;
42726;SDS011;28372;56.832;60.658;2023-04-22T01:26:29;14.82;;;7.78;;
42726;SDS011;28372;56.832;60.658;2023-04-22T01:28:57;13.25;;;8.13;;
42726;SDS011;28372;56.832;60.658;2023-04-22T01:31:28;15.20;;;8.52;;
42726;SDS011;28372;56.832;60.658;2023-04-22T01:33:56;18.38;;;9.27;;
42726;SDS011;28372;56.832;60.658;2023-04-22T01:36:25;13.40;;;7.88;;
42726;SDS011;28372;56.832;60.658;2023-04-22T01:38:53;13.10;;;8.50;;
42726;SDS011;28372;56.832;60.658;2023-04-22T01:41:25;15.13;;;8.95;;
42726;SDS011;28372;56.832;60.658;2023-04-22T01:43:53;17.55;;;8.95;;
42726;SDS011;28372;56.832;60.658;2023-04-22T01:46:22;15.30;;;9.77;;
42726;SDS011;28372;56.832;60.658;2023-04-22T01:48:49;16.05;;;9.13;;
42726;SDS011;28372;56.832;60.658;2023-04-22T01:51:20;14.65;;;9.65;;
42726;SDS011;28372;56.832;60.658;2023-04-22T01:53:48;16.10;;;10.07;;
42726;SDS011;28372;56.832;60.658;2023-04-22T01:56:15;13.75;;;9.65;;
42726;SDS011;28372;56.832;60.658;2023-04-22T01:58:43;14.57;;;9.80;;
42726;SDS011;28372;56.832;60.658;2023-04-22T02:01:12;14.05;;;9.27;;
42726;SDS011;28372;56.832;60.658;2023-04-22T02:03:40;13.77;;;9.20;;
42726;SDS011;28372;56.832;60.658;2023-04-22T02:06:09;13.55;;;8.10;;
42726;SDS011;28372;56.832;60.658;2023-04-22T02:08:37;11.82;;;8.02;;
42726;SDS011;28372;56.832;60.658;2023-04-22T02:11:04;16.10;;;8.35;;
42726;SDS011;28372;56.832;60.658;2023-04-22T02:13:35;15.27;;;9.50;;
42726;SDS011;28372;56.832;60.658;2023-04-22T02:16:04;14.32;;;9.23;;
42726;SDS011;28372;56.832;60.658;2023-04-22T02:18:31;14.43;;;9.13;;
42726;SDS011;28372;56.832;60.658;2023-04-22T02:21:00;13.88;;;9.25;;
42726;SDS011;28372;56.832;60.658;2023-04-22T02:23:27;15.05;;;9.23;;
42726;SDS011;28372;56.832;60.658;2023-04-22T02:25:55;15.75;;;9.27;;
42726;SDS011;28372;56.832;60.658;2023-04-22T02:28:23;15.35;;;9.32;;
42726;SDS011;28372;56.832;60.658;2023-04-22T02:30:50;17.13;;;9.35;;
42726;SDS011;28372;56.832;60.658;2023-04-22T02:33:19;15.55;;;9.82;;
42726;SDS011;28372;56.832;60.658;2023-04-22T02:35:47;15.38;;;9.73;;
42726;SDS011;28372;56.832;60.658;2023-04-22T02:38:17;15.32;;;9.68;;
42726;SDS011;28372;56.832;60.658;2023-04-22T02:40:45;17.50;;;9.88;;
42726;SDS011;28372;56.832;60.658;2023-04-22T02:43:13;13.68;;;9.30;;
42726;SDS011;28372;56.832;60.658;2023-04-22T02:45:40;13.30;;;9.02;;
42726;SDS011;28372;56.832;60.658;2023-04-22T02:48:09;14.55;;;9.70;;
42726;SDS011;28372;56.832;60.658;2023-04-22T02:50:36;14.13;;;9.15;;
42726;SDS011;28372;56.832;60.658;2023-04-22T02:53:04;15.43;;;10.15;;
42726;SDS011;28372;56.832;60.658;2023-04-22T02:55:32;15.23;;;9.05;;
42726;SDS011;28372;56.832;60.658;2023-04-22T02:57:59;14.93;;;9.20;;
42726;SDS011;28372;56.832;60.658;2023-04-22T03:00:28;14.52;;;8.63;;
42726;SDS011;28372;56.832;60.658;2023-04-22T03:02:55;15.93;;;8.68;;
42726;SDS011;28372;56.832;60.658;2023-04-22T03:05:32;14.18;;;8.73;;
42726;SDS011;28372;56.832;60.658;2023-04-22T03:08:01;14.30;;;8.38;;
42726;SDS011;28372;56.832;60.658;2023-04-22T03:10:29;15.80;;;8.77;;
42726;SDS011;28372;56.832;60.658;2023-04-22T03:12:58;13.65;;;8.50;;
42726;SDS011;28372;56.832;60.658;2023-04-22T03:15:26;14.07;;;8.55;;
42726;SDS011;28372;56.832;60.658;2023-04-22T03:17:53;14.77;;;9.00;;
42726;SDS011;28372;56.832;60.658;2023-04-22T03:20:22;18.38;;;8.65;;
42726;SDS011;28372;56.832;60.658;2023-04-22T03:22:50;14.23;;;8.52;;
42726;SDS011;28372;56.832;60.658;2023-04-22T03:25:18;17.85;;;8.57;;
42726;SDS011;28372;56.832;60.658;2023-04-22T03:27:51;13.13;;;8.38;;
42726;SDS011;28372;56.832;60.658;2023-04-22T03:30:19;16.92;;;8.10;;
42726;SDS011;28372;56.832;60.658;2023-04-22T03:32:47;17.88;;;8.05;;
42726;SDS011;28372;56.832;60.658;2023-04-22T03:37:49;17.45;;;9.00;;
42726;SDS011;28372;56.832;60.658;2023-04-22T03:40:22;17.23;;;8.80;;
42726;SDS011;28372;56.832;60.658;2023-04-22T03:42:50;16.17;;;8.52;;
42726;SDS011;28372;56.832;60.658;2023-04-22T03:48:35;21.48;;;10.88;;
42726;SDS011;28372;56.832;60.658;2023-04-22T03:51:08;19.55;;;8.10;;
42726;SDS011;28372;56.832;60.658;2023-04-22T03:53:39;16.80;;;8.27;;
42726;SDS011;28372;56.832;60.658;2023-04-22T03:56:08;13.40;;;7.05;;
42726;SDS011;28372;56.832;60.658;2023-04-22T03:58:42;16.08;;;7.72;;
42726;SDS011;28372;56.832;60.658;2023-04-22T04:01:10;17.38;;;7.25;;
42726;SDS011;28372;56.832;60.658;2023-04-22T04:03:39;14.75;;;6.90;;
42726;SDS011;28372;56.832;60.658;2023-04-22T04:06:08;13.18;;;7.20;;
42726;SDS011;28372;56.832;60.658;2023-04-22T04:08:36;11.82;;;6.60;;
42726;SDS011;28372;56.832;60.658;2023-04-22T04:11:04;12.75;;;6.78;;
42726;SDS011;28372;56.832;60.658;2023-04-22T04:13:31;14.13;;;7.05;;
42726;SDS011;28372;56.832;60.658;2023-04-22T04:16:19;13.02;;;7.15;;
42726;SDS011;28372;56.832;60.658;2023-04-22T04:18:53;13.43;;;7.47;;
42726;SDS011;28372;56.832;60.658;2023-04-22T04:21:23;13.93;;;6.90;;
42726;SDS011;28372;56.832;60.658;2023-04-22T04:23:54;13.35;;;7.15;;
42726;SDS011;28372;56.832;60.658;2023-04-22T04:26:26;13.38;;;7.10;;
42726;SDS011;28372;56.832;60.658;2023-04-22T04:29:01;16.77;;;7.28;;
42726;SDS011;28372;56.832;60.658;2023-04-22T04:31:28;13.13;;;6.72;;
42726;SDS011;28372;56.832;60.658;2023-04-22T04:33:57;14.45;;;6.82;;
42726;SDS011;28372;56.832;60.658;2023-04-22T04:36:26;10.95;;;6.30;;
42726;SDS011;28372;56.832;60.658;2023-04-22T04:39:05;9.68;;;6.43;;
42726;SDS011;28372;56.832;60.658;2023-04-22T04:41:36;12.50;;;6.10;;
42726;SDS011;28372;56.832;60.658;2023-04-22T04:44:05;10.50;;;5.85;;
42726;SDS011;28372;56.832;60.658;2023-04-22T04:46:36;9.10;;;5.60;;
42726;SDS011;28372;56.832;60.658;2023-04-22T04:49:05;10.98;;;5.80;;
42726;SDS011;28372;56.832;60.658;2023-04-22T04:51:44;9.43;;;5.38;;
42726;SDS011;28372;56.832;60.658;2023-04-22T04:54:12;8.27;;;5.10;;
42726;SDS011;28372;56.832;60.658;2023-04-22T04:56:40;8.32;;;5.20;;
42726;SDS011;28372;56.832;60.658;2023-04-22T04:59:09;7.32;;;5.13;;
42726;SDS011;28372;56.832;60.658;2023-04-22T05:01:38;6.63;;;4.30;;
42726;SDS011;28372;56.832;60.658;2023-04-22T05:04:09;7.38;;;4.50;;
42726;SDS011;28372;56.832;60.658;2023-04-22T05:06:40;8.65;;;4.78;;
42726;SDS011;28372;56.832;60.658;2023-04-22T05:09:07;8.68;;;5.05;;
42726;SDS011;28372;56.832;60.658;2023-04-22T05:11:36;12.38;;;5.85;;
42726;SDS011;28372;56.832;60.658;2023-04-22T05:14:10;13.02;;;7.20;;
42726;SDS011;28372;56.832;60.658;2023-04-22T05:16:40;24.40;;;8.85;;
42726;SDS011;28372;56.832;60.658;2023-04-22T05:19:08;25.27;;;8.70;;
42726;SDS011;28372;56.832;60.658;2023-04-22T05:21:36;20.77;;;8.57;;
42726;SDS011;28372;56.832;60.658;2023-04-22T05:24:04;20.25;;;7.95;;
42726;SDS011;28372;56.832;60.658;2023-04-22T05:26:32;14.95;;;6.78;;
42726;SDS011;28372;56.832;60.658;2023-04-22T05:29:03;16.67;;;6.45;;
42726;SDS011;28372;56.832;60.658;2023-04-22T05:31:32;14.90;;;6.28;;
42726;SDS011;28372;56.832;60.658;2023-04-22T05:34:00;17.77;;;6.20;;
42726;SDS011;28372;56.832;60.658;2023-04-22T05:36:28;13.27;;;6.07;;
42726;SDS011;28372;56.832;60.658;2023-04-22T05:38:58;16.80;;;8.25;;
42726;SDS011;28372;56.832;60.658;2023-04-22T05:41:26;16.33;;;8.60;;
42726;SDS011;28372;56.832;60.658;2023-04-22T05:43:56;27.75;;;8.90;;
42726;SDS011;28372;56.832;60.658;2023-04-22T05:46:24;23.15;;;8.10;;
42726;SDS011;28372;56.832;60.658;2023-04-22T05:48:53;21.08;;;8.65;;
42726;SDS011;28372;56.832;60.658;2023-04-22T05:51:57;19.83;;;8.85;;
42726;SDS011;28372;56.832;60.658;2023-04-22T05:54:31;20.13;;;9.35;;
42726;SDS011;28372;56.832;60.658;2023-04-22T05:56:58;17.30;;;9.07;;
42726;SDS011;28372;56.832;60.658;2023-04-22T05:59:26;22.05;;;9.95;;
42726;SDS011;28372;56.832;60.658;2023-04-22T06:01:54;24.75;;;10.98;;
42726;SDS011;28372;56.832;60.658;2023-04-22T06:04:23;16.60;;;8.68;;
42726;SDS011;28372;56.832;60.658;2023-04-22T06:06:51;18.35;;;9.00;;
42726;SDS011;28372;56.832;60.658;2023-04-22T06:09:21;20.83;;;8.93;;
42726;SDS011;28372;56.832;60.658;2023-04-22T06:11:49;21.35;;;8.45;;
42726;SDS011;28372;56.832;60.658;2023-04-22T06:14:17;17.92;;;8.63;;
42726;SDS011;28372;56.832;60.658;2023-04-22T06:16:46;16.08;;;8.88;;
42726;SDS011;28372;56.832;60.658;2023-04-22T06:19:13;14.20;;;8.23;;
42726;SDS011;28372;56.832;60.658;2023-04-22T06:21:41;15.43;;;8.38;;
42726;SDS011;28372;56.832;60.658;2023-04-22T06:24:09;14.95;;;8.30;;
42726;SDS011;28372;56.832;60.658;2023-04-22T06:26:36;12.45;;;6.32;;
42726;SDS011;28372;56.832;60.658;2023-04-22T06:29:04;14.48;;;7.07;;
42726;SDS011;28372;56.832;60.658;2023-04-22T06:31:33;14.93;;;8.05;;
42726;SDS011;28372;56.832;60.658;2023-04-22T06:34:01;10.32;;;4.78;;
42726;SDS011;28372;56.832;60.658;2023-04-22T06:36:29;16.10;;;5.35;;
42726;SDS011;28372;56.832;60.658;2023-04-22T06:39:01;7.90;;;3.63;;
42726;SDS011;28372;56.832;60.658;2023-04-22T06:41:51;4.70;;;2.70;;
42726;SDS011;28372;56.832;60.658;2023-04-22T06:44:30;5.45;;;2.60;;
42726;SDS011;28372;56.832;60.658;2023-04-22T06:47:16;5.18;;;2.20;;
42726;SDS011;28372;56.832;60.658;2023-04-22T06:50:00;9.80;;;3.07;;
42726;SDS011;28372;56.832;60.658;2023-04-22T06:52:33;7.28;;;2.53;;
42726;SDS011;28372;56.832;60.658;2023-04-22T06:55:02;9.25;;;3.15;;
42726;SDS011;28372;56.832;60.658;2023-04-22T06:57:31;7.25;;;2.20;;
42726;SDS011;28372;56.832;60.658;2023-04-22T06:59:58;7.30;;;2.58;;
42726;SDS011;28372;56.832;60.658;2023-04-22T07:02:26;6.80;;;2.25;;
42726;SDS011;28372;56.832;60.658;2023-04-22T07:04:54;4.78;;;2.40;;
42726;SDS011;28372;56.832;60.658;2023-04-22T07:07:22;3.35;;;2.30;;
42726;SDS011;28372;56.832;60.658;2023-04-22T07:09:51;5.45;;;2.15;;
42726;SDS011;28372;56.832;60.658;2023-04-22T07:12:18;4.68;;;2.45;;
42726;SDS011;28372;56.832;60.658;2023-04-22T07:14:47;4.03;;;2.03;;
42726;SDS011;28372;56.832;60.658;2023-04-22T07:17:15;6.10;;;2.50;;
42726;SDS011;28372;56.832;60.658;2023-04-22T07:19:45;5.28;;;2.47;;
42726;SDS011;28372;56.832;60.658;2023-04-22T07:22:12;4.88;;;2.30;;
42726;SDS011;28372;56.832;60.658;2023-04-22T07:24:40;4.05;;;1.90;;
42726;SDS011;28372;56.832;60.658;2023-04-22T07:27:08;4.57;;;2.20;;
42726;SDS011;28372;56.832;60.658;2023-04-22T07:29:35;4.72;;;2.35;;
42726;SDS011;28372;56.832;60.658;2023-04-22T07:32:03;4.25;;;2.20;;
42726;SDS011;28372;56.832;60.658;2023-04-22T07:34:32;5.63;;;2.25;;
42726;SDS011;28372;56.832;60.658;2023-04-22T07:37:00;4.10;;;1.98;;
42726;SDS011;28372;56.832;60.658;2023-04-22T07:39:27;4.88;;;1.92;;
42726;SDS011;28372;56.832;60.658;2023-04-22T07:41:55;3.25;;;2.10;;
42726;SDS011;28372;56.832;60.658;2023-04-22T07:44:22;3.40;;;1.95;;
42726;SDS011;28372;56.832;60.658;2023-04-22T07:46:50;3.80;;;1.83;;
42726;SDS011;28372;56.832;60.658;2023-04-22T07:49:18;3.03;;;1.95;;
42726;SDS011;28372;56.832;60.658;2023-04-22T07:51:46;4.38;;;1.95;;
42726;SDS011;28372;56.832;60.658;2023-04-22T07:54:13;5.05;;;2.45;;
42726;SDS011;28372;56.832;60.658;2023-04-22T07:56:41;4.63;;;1.98;;
42726;SDS011;28372;56.832;60.658;2023-04-22T07:59:08;5.15;;;2.25;;
42726;SDS011;28372;56.832;60.658;2023-04-22T08:01:36;6.53;;;2.30;;
42726;SDS011;28372;56.832;60.658;2023-04-22T08:04:03;4.18;;;2.40;;
42726;SDS011;28372;56.832;60.658;2023-04-22T08:06:31;4.50;;;2.40;;
42726;SDS011;28372;56.832;60.658;2023-04-22T08:08:59;5.20;;;2.38;;
42726;SDS011;28372;56.832;60.658;2023-04-22T08:11:27;7.00;;;2.50;;
42726;SDS011;28372;56.832;60.658;2023-04-22T08:13:54;4.75;;;2.13;;
42726;SDS011;28372;56.832;60.658;2023-04-22T08:16:22;4.30;;;2.10;;
42726;SDS011;28372;56.832;60.658;2023-04-22T08:18:49;7.57;;;2.35;;
42726;SDS011;28372;56.832;60.658;2023-04-22T08:21:18;4.90;;;2.17;;
42726;SDS011;28372;56.832;60.658;2023-04-22T08:23:45;4.50;;;1.85;;
42726;SDS011;28372;56.832;60.658;2023-04-22T08:26:13;3.88;;;2.10;;
42726;SDS011;28372;56.832;60.658;2023-04-22T08:28:42;7.47;;;2.10;;
42726;SDS011;28372;56.832;60.658;2023-04-22T08:31:10;5.72;;;2.30;;
42726;SDS011;28372;56.832;60.658;2023-04-22T08:33:39;5.07;;;2.55;;
42726;SDS011;28372;56.832;60.658;2023-04-22T08:36:07;3.38;;;2.13;;
42726;SDS011;28372;56.832;60.658;2023-04-22T08:38:36;4.10;;;2.60;;
42726;SDS011;28372;56.832;60.658;2023-04-22T08:41:04;4.95;;;2.63;;
42726;SDS011;28372;56.832;60.658;2023-04-22T08:43:33;6.28;;;2.30;;
42726;SDS011;28372;56.832;60.658;2023-04-22T08:46:01;4.20;;;2.45;;
42726;SDS011;28372;56.832;60.658;2023-04-22T08:48:28;4.22;;;2.45;;
42726;SDS011;28372;56.832;60.658;2023-04-22T08:50:56;5.28;;;2.40;;
42726;SDS011;28372;56.832;60.658;2023-04-22T08:53:24;5.45;;;2.45;;
42726;SDS011;28372;56.832;60.658;2023-04-22T08:55:52;3.97;;;2.28;;
42726;SDS011;28372;56.832;60.658;2023-04-22T08:58:22;4.75;;;2.45;;
42726;SDS011;28372;56.832;60.658;2023-04-22T09:00:50;4.15;;;2.20;;
42726;SDS011;28372;56.832;60.658;2023-04-22T09:03:18;4.35;;;2.63;;
42726;SDS011;28372;56.832;60.658;2023-04-22T09:05:47;5.00;;;2.50;;
42726;SDS011;28372;56.832;60.658;2023-04-22T09:08:18;4.45;;;2.35;;
42726;SDS011;28372;56.832;60.658;2023-04-22T09:10:46;5.38;;;2.90;;
42726;SDS011;28372;56.832;60.658;2023-04-22T09:13:14;5.82;;;2.90;;
42726;SDS011;28372;56.832;60.658;2023-04-22T09:15:43;4.72;;;2.75;;
42726;SDS011;28372;56.832;60.658;2023-04-22T09:18:13;7.50;;;3.15;;
42726;SDS011;28372;56.832;60.658;2023-04-22T09:20:45;6.53;;;3.70;;
42726;SDS011;28372;56.832;60.658;2023-04-22T09:23:14;5.57;;;3.70;;
42726;SDS011;28372;56.832;60.658;2023-04-22T09:25:43;5.60;;;3.65;;
42726;SDS011;28372;56.832;60.658;2023-04-22T09:28:15;5.85;;;3.92;;
42726;SDS011;28372;56.832;60.658;2023-04-22T09:30:45;7.30;;;3.63;;
42726;SDS011;28372;56.832;60.658;2023-04-22T09:33:14;6.78;;;3.75;;
42726;SDS011;28372;56.832;60.658;2023-04-22T09:35:43;6.72;;;4.03;;
42726;SDS011;28372;56.832;60.658;2023-04-22T09:38:11;7.05;;;4.65;;
42726;SDS011;28372;56.832;60.658;2023-04-22T09:40:42;6.70;;;4.63;;
42726;SDS011;28372;56.832;60.658;2023-04-22T09:43:10;6.88;;;5.45;;
42726;SDS011;28372;56.832;60.658;2023-04-22T09:45:39;5.78;;;4.57;;
42726;SDS011;28372;56.832;60.658;2023-04-22T09:48:12;7.57;;;5.13;;
42726;SDS011;28372;56.832;60.658;2023-04-22T09:50:48;6.43;;;4.90;;
42726;SDS011;28372;56.832;60.658;2023-04-22T09:53:18;9.00;;;5.30;;
42726;SDS011;28372;56.832;60.658;2023-04-22T09:55:48;7.72;;;4.90;;
42726;SDS011;28372;56.832;60.658;2023-04-22T09:58:18;6.88;;;4.68;;
42726;SDS011;28372;56.832;60.658;2023-04-22T10:00:48;6.22;;;4.07;;
42726;SDS011;28372;56.832;60.658;2023-04-22T10:03:18;5.25;;;3.20;;
42726;SDS011;28372;56.832;60.658;2023-04-22T10:05:46;6.07;;;3.85;;
42726;SDS011;28372;56.832;60.658;2023-04-22T10:08:14;6.78;;;3.40;;
42726;SDS011;28372;56.832;60.658;2023-04-22T10:10:43;7.43;;;3.30;;
42726;SDS011;28372;56.832;60.658;2023-04-22T10:13:10;8.02;;;3.97;;
42726;SDS011;28372;56.832;60.658;2023-04-22T10:15:42;4.65;;;3.13;;
42726;SDS011;28372;56.832;60.658;2023-04-22T10:18:15;5.53;;;3.58;;
42726;SDS011;28372;56.832;60.658;2023-04-22T10:20:47;6.63;;;3.50;;
42726;SDS011;28372;56.832;60.658;2023-04-22T10:23:20;6.25;;;3.97;;
42726;SDS011;28372;56.832;60.658;2023-04-22T10:25:57;9.85;;;5.00;;
42726;SDS011;28372;56.832;60.658;2023-04-22T10:28:26;7.00;;;4.40;;
42726;SDS011;28372;56.832;60.658;2023-04-22T10:30:55;7.13;;;4.72;;
42726;SDS011;28372;56.832;60.658;2023-04-22T10:36:27;6.47;;;4.70;;
42726;SDS011;28372;56.832;60.658;2023-04-22T10:41:24;5.55;;;3.90;;
42726;SDS011;28372;56.832;60.658;2023-04-22T10:44:05;6.45;;;3.75;;
42726;SDS011;28372;56.832;60.658;2023-04-22T10:49:09;6.43;;;3.90;;
42726;SDS011;28372;56.832;60.658;2023-04-22T10:51:53;5.43;;;3.70;;
42726;SDS011;28372;56.832;60.658;2023-04-22T10:59:48;6.53;;;3.88;;
42726;SDS011;28372;56.832;60.658;2023-04-22T11:02:19;8.43;;;4.13;;
42726;SDS011;28372;56.832;60.658;2023-04-22T11:04:48;6.40;;;4.00;;
42726;SDS011;28372;56.832;60.658;2023-04-22T11:09:49;7.57;;;4.10;;
42726;SDS011;28372;56.832;60.658;2023-04-22T11:17:33;7.65;;;4.97;;
42726;SDS011;28372;56.832;60.658;2023-04-22T11:20:02;7.40;;;4.85;;
42726;SDS011;28372;56.832;60.658;2023-04-22T11:22:41;9.73;;;4.60;;
42726;SDS011;28372;56.832;60.658;2023-04-22T11:25:10;9.30;;;5.05;;
42726;SDS011;28372;56.832;60.658;2023-04-22T11:27:38;8.57;;;4.47;;
42726;SDS011;28372;56.832;60.658;2023-04-22T11:30:10;9.07;;;5.18;;
42726;SDS011;28372;56.832;60.658;2023-04-22T11:32:39;7.30;;;4.68;;
42726;SDS011;28372;56.832;60.658;2023-04-22T11:35:13;8.27;;;5.22;;
42726;SDS011;28372;56.832;60.658;2023-04-22T11:37:42;7.65;;;5.18;;
42726;SDS011;28372;56.832;60.658;2023-04-22T11:40:18;6.17;;;4.20;;
42726;SDS011;28372;56.832;60.658;2023-04-22T11:43:00;7.88;;;4.80;;
42726;SDS011;28372;56.832;60.658;2023-04-22T11:45:30;7.15;;;4.55;;
42726;SDS011;28372;56.832;60.658;2023-04-22T11:47:59;7.63;;;4.70;;
42726;SDS011;28372;56.832;60.658;2023-04-22T11:50:29;6.75;;;4.88;;
42726;SDS011;28372;56.832;60.658;2023-04-22T11:52:59;6.78;;;4.22;;
42726;SDS011;28372;56.832;60.658;2023-04-22T11:55:30;6.43;;;4.18;;
42726;SDS011;28372;56.832;60.658;2023-04-22T11:58:00;7.18;;;4.13;;
42726;SDS011;28372;56.832;60.658;2023-04-22T12:00:42;6.55;;;4.63;;
42726;SDS011;28372;56.832;60.658;2023-04-22T12:03:12;9.18;;;5.53;;
42726;SDS011;28372;56.832;60.658;2023-04-22T12:08:20;8.27;;;5.35;;
42726;SDS011;28372;56.832;60.658;2023-04-22T12:10:53;8.70;;;5.22;;
42726;SDS011;28372;56.832;60.658;2023-04-22T12:13:27;8.23;;;5.43;;
42726;SDS011;28372;56.832;60.658;2023-04-22T12:15:57;9.65;;;6.45;;
42726;SDS011;28372;56.832;60.658;2023-04-22T12:18:33;11.95;;;5.90;;
42726;SDS011;28372;56.832;60.658;2023-04-22T12:23:39;12.55;;;5.95;;
42726;SDS011;28372;56.832;60.658;2023-04-22T12:26:14;8.40;;;4.90;;
42726;SDS011;28372;56.832;60.658;2023-04-22T12:28:43;11.23;;;5.85;;
42726;SDS011;28372;56.832;60.658;2023-04-22T12:31:12;10.32;;;5.40;;
42726;SDS011;28372;56.832;60.658;2023-04-22T12:33:40;9.02;;;5.30;;
42726;SDS011;28372;56.832;60.658;2023-04-22T12:36:09;24.85;;;7.20;;
42726;SDS011;28372;56.832;60.658;2023-04-22T12:38:37;8.50;;;5.22;;
42726;SDS011;28372;56.832;60.658;2023-04-22T12:41:05;10.73;;;5.70;;
42726;SDS011;28372;56.832;60.658;2023-04-22T12:43:33;11.40;;;5.18;;
42726;SDS011;28372;56.832;60.658;2023-04-22T12:46:05;9.32;;;4.78;;
42726;SDS011;28372;56.832;60.658;2023-04-22T12:48:34;11.70;;;5.65;;
42726;SDS011;28372;56.832;60.658;2023-04-22T12:51:03;8.82;;;4.82;;
42726;SDS011;28372;56.832;60.658;2023-04-22T12:53:32;8.70;;;5.20;;
42726;SDS011;28372;56.832;60.658;2023-04-22T12:56:00;11.57;;;6.45;;
42726;SDS011;28372;56.832;60.658;2023-04-22T12:58:28;8.98;;;4.70;;
42726;SDS011;28372;56.832;60.658;2023-04-22T13:00:55;8.32;;;5.20;;
42726;SDS011;28372;56.832;60.658;2023-04-22T13:03:23;9.45;;;4.47;;
42726;SDS011;28372;56.832;60.658;2023-04-22T13:05:51;52.58;;;7.80;;
42726;SDS011;28372;56.832;60.658;2023-04-22T13:08:18;11.68;;;5.57;;
42726;SDS011;28372;56.832;60.658;2023-04-22T13:10:46;11.38;;;5.70;;
42726;SDS011;28372;56.832;60.658;2023-04-22T13:13:14;11.13;;;6.22;;
42726;SDS011;28372;56.832;60.658;2023-04-22T13:15:48;10.50;;;6.28;;
42726;SDS011;28372;56.832;60.658;2023-04-22T13:18:20;11.38;;;6.80;;
42726;SDS011;28372;56.832;60.658;2023-04-22T13:20:49;8.48;;;5.18;;
42726;SDS011;28372;56.832;60.658;2023-04-22T13:23:17;10.73;;;7.38;;
42726;SDS011;28372;56.832;60.658;2023-04-22T13:25:53;11.35;;;6.03;;
42726;SDS011;28372;56.832;60.658;2023-04-22T13:28:22;58.53;;;9.38;;
42726;SDS011;28372;56.832;60.658;2023-04-22T13:30:50;15.32;;;8.95;;
42726;SDS011;28372;56.832;60.658;2023-04-22T13:33:18;11.00;;;7.30;;
42726;SDS011;28372;56.832;60.658;2023-04-22T13:35:45;9.70;;;6.30;;
42726;SDS011;28372;56.832;60.658;2023-04-22T13:38:13;10.15;;;5.28;;
42726;SDS011;28372;56.832;60.658;2023-04-22T13:40:40;10.35;;;6.53;;
42726;SDS011;28372;56.832;60.658;2023-04-22T13:43:08;8.20;;;5.32;;
42726;SDS011;28372;56.832;60.658;2023-04-22T13:45:35;13.02;;;5.95;;
42726;SDS011;28372;56.832;60.658;2023-04-22T13:48:03;9.45;;;5.22;;
42726;SDS011;28372;56.832;60.658;2023-04-22T13:50:31;9.57;;;5.18;;
42726;SDS011;28372;56.832;60.658;2023-04-22T13:53:00;8.40;;;5.45;;
42726;SDS011;28372;56.832;60.658;2023-04-22T13:55:29;8.60;;;5.28;;
42726;SDS011;28372;56.832;60.658;2023-04-22T13:57:57;9.75;;;6.63;;
42726;SDS011;28372;56.832;60.658;2023-04-22T14:00:24;8.85;;;5.70;;
42726;SDS011;28372;56.832;60.658;2023-04-22T14:02:52;10.15;;;6.00;;
42726;SDS011;28372;56.832;60.658;2023-04-22T14:05:20;8.35;;;5.55;;
42726;SDS011;28372;56.832;60.658;2023-04-22T14:07:47;8.70;;;5.45;;
42726;SDS011;28372;56.832;60.658;2023-04-22T14:10:15;8.88;;;5.15;;
42726;SDS011;28372;56.832;60.658;2023-04-22T14:12:46;7.60;;;5.35;;
42726;SDS011;28372;56.832;60.658;2023-04-22T14:15:14;9.80;;;6.20;;
42726;SDS011;28372;56.832;60.658;2023-04-22T14:17:42;9.20;;;6.18;;
42726;SDS011;28372;56.832;60.658;2023-04-22T14:20:09;8.25;;;5.80;;
42726;SDS011;28372;56.832;60.658;2023-04-22T14:22:37;11.98;;;6.40;;
42726;SDS011;28372;56.832;60.658;2023-04-22T14:25:05;11.20;;;5.43;;
42726;SDS011;28372;56.832;60.658;2023-04-22T14:27:33;10.18;;;5.90;;
42726;SDS011;28372;56.832;60.658;2023-04-22T14:30:02;11.25;;;5.50;;
42726;SDS011;28372;56.832;60.658;2023-04-22T14:32:32;10.02;;;5.85;;
42726;SDS011;28372;56.832;60.658;2023-04-22T14:34:59;9.48;;;5.70;;
42726;SDS011;28372;56.832;60.658;2023-04-22T14:37:28;11.98;;;5.93;;
42726;SDS011;28372;56.832;60.658;2023-04-22T14:39:57;10.40;;;6.10;;
42726;SDS011;28372;56.832;60.658;2023-04-22T14:42:25;14.43;;;7.72;;
42726;SDS011;28372;56.832;60.658;2023-04-22T14:44:53;44.67;;;9.52;;
42726;SDS011;28372;56.832;60.658;2023-04-22T14:47:20;15.80;;;7.38;;
42726;SDS011;28372;56.832;60.658;2023-04-22T14:49:48;11.32;;;6.85;;
42726;SDS011;28372;56.832;60.658;2023-04-22T14:52:16;12.25;;;8.98;;
42726;SDS011;28372;56.832;60.658;2023-04-22T14:54:44;11.60;;;7.13;;
42726;SDS011;28372;56.832;60.658;2023-04-22T14:57:13;8.18;;;6.03;;
42726;SDS011;28372;56.832;60.658;2023-04-22T14:59:41;10.43;;;6.07;;
42726;SDS011;28372;56.832;60.658;2023-04-22T15:02:10;10.05;;;5.30;;
42726;SDS011;28372;56.832;60.658;2023-04-22T15:04:42;9.00;;;5.30;;
42726;SDS011;28372;56.832;60.658;2023-04-22T15:07:10;11.02;;;5.90;;
42726;SDS011;28372;56.832;60.658;2023-04-22T15:09:38;8.90;;;5.57;;
42726;SDS011;28372;56.832;60.658;2023-04-22T15:12:06;9.43;;;5.90;;